Time;durP1;ratioP1;P1;durP2;ratioP2;P2;SDS_P1;SDS_P2;PMS_P1;PMS_P2;Temp;Humidity;BMP_temperature;BMP_pressure;BME280_temperature;BME280_humidity;BME280_pressure;Samples;Min_cycle;Max_cycle;Signal;HPM_P1;HPM_P2
2021/12/13 00:01:30;;;;;;;81.17;27.87;;;;;;;;;;6159582;23;20739;-89
2021/12/13 00:04:00;;;;;;;88.63;28.38;;;;;;;;;;6162349;23;20380;-89
2021/12/13 00:06:31;;;;;;;82.50;28.00;;;;;;;;;;6165704;23;21095;-86
2021/12/13 00:08:59;;;;;;;88.65;28.98;;;;;;;;;;6166024;23;20377;-88
2021/12/13 00:11:28;;;;;;;101.18;31.45;;;;;;;;;;6165509;23;20364;-89
2021/12/13 00:13:59;;;;;;;86.30;28.88;;;;;;;;;;6166433;23;20858;-89
2021/12/13 00:16:28;;;;;;;92.40;29.95;;;;;;;;;;6166649;23;20394;-88
2021/12/13 00:19:06;;;;;;;86.03;29.15;;;;;;;;;;6190357;23;20380;-88
2021/12/13 00:21:44;;;;;;;95.72;30.52;;;;;;;;;;6190059;23;20374;-90
2021/12/13 00:24:20;;;;;;;98.45;30.52;;;;;;;;;;6166454;23;20371;-88
2021/12/13 00:26:47;;;;;;;100.37;30.97;;;;;;;;;;6191451;23;20424;-89
2021/12/13 00:29:14;;;;;;;99.53;30.83;;;;;;;;;;6166488;23;20363;-89
2021/12/13 00:31:46;;;;;;;97.47;31.77;;;;;;;;;;6164680;23;20446;-89
2021/12/13 00:34:22;;;;;;;98.32;31.75;;;;;;;;;;6165299;23;20469;-88
2021/12/13 00:36:52;;;;;;;118.63;33.23;;;;;;;;;;6190055;23;20371;-87
2021/12/13 00:39:21;;;;;;;118.55;33.88;;;;;;;;;;6190369;23;20414;-88
2021/12/13 00:41:48;;;;;;;140.50;36.92;;;;;;;;;;6189750;23;20426;-88
2021/12/13 00:44:19;;;;;;;159.15;38.67;;;;;;;;;;6165196;23;20363;-89
2021/12/13 00:46:46;;;;;;;155.23;38.65;;;;;;;;;;6165291;23;20371;-88
2021/12/13 00:49:14;;;;;;;174.93;40.00;;;;;;;;;;6164311;23;20389;-77
2021/12/13 00:51:45;;;;;;;189.23;42.15;;;;;;;;;;6161520;23;20450;-76
2021/12/13 00:54:19;;;;;;;205.23;44.10;;;;;;;;;;6161119;23;20374;-75
2021/12/13 00:56:51;;;;;;;203.55;43.80;;;;;;;;;;6161961;23;20375;-75
2021/12/13 00:59:32;;;;;;;197.00;41.97;;;;;;;;;;6161005;23;20384;-75
2021/12/13 01:02:02;;;;;;;144.60;36.75;;;10.40;99.90;;;;;;6161665;23;20483;-75
2021/12/13 01:04:51;;;;;;;139.40;36.28;;;;;;;;;;6161042;23;20466;-87
2021/12/13 01:07:37;;;;;;;132.27;34.90;;;;;;;;;;6189003;23;20426;-86
2021/12/13 01:10:22;;;;;;;121.05;34.05;;;;;;;;;;6164522;23;20368;-86
2021/12/13 01:12:49;;;;;;;104.68;32.45;;;;;;;;;;6163639;23;20383;-85
2021/12/13 01:15:39;;;;;;;97.57;31.33;;;;;;;;;;6187522;23;20367;-85
2021/12/13 01:18:29;;;;;;;104.68;32.03;;;;;;;;;;6163730;23;20364;-83
2021/12/13 01:21:13;;;;;;;102.32;31.63;;;;;;;;;;6162971;23;20387;-75
2021/12/13 01:23:46;;;;;;;69.07;28.10;;;;;;;;;;6186085;23;20368;-75
2021/12/13 01:28:42;;;;;;;71.70;27.27;;;;;;;;;;6185421;23;20374;-75
2021/12/13 01:31:19;;;;;;;69.68;27.45;;;;;;;;;;6159830;23;20832;-76
2021/12/13 01:33:46;;;;;;;74.28;27.70;;;;;;;;;;6161363;23;20447;-76
2021/12/13 01:36:20;;;;;;;62.63;26.70;;;;;;;;;;6162676;23;20368;-77
2021/12/13 01:38:51;;;;;;;63.60;26.23;;;;;;;;;;6162620;23;20680;-76
2021/12/13 01:41:20;;;;;;;53.88;25.42;;;;;;;;;;6188005;23;20367;-75
2021/12/13 01:43:54;;;;;;;54.08;25.45;;;;;;;;;;6162958;23;20368;-75
2021/12/13 01:46:22;;;;;;;61.30;27.17;;;;;;;;;;6165521;23;20367;-86
2021/12/13 01:48:48;;;;;;;62.22;27.35;;;;;;;;;;6165555;23;20364;-85
2021/12/13 01:51:19;;;;;;;58.70;27.33;;;;;;;;;;6190298;23;20360;-85
2021/12/13 01:53:57;;;;;;;69.30;28.17;;;;;;;;;;6189917;23;20363;-85
2021/12/13 01:56:40;;;;;;;64.97;28.70;;;;;;;;;;6166900;23;20718;-85
2021/12/13 01:59:28;;;;;;;70.38;30.27;;;;;;;;;;6164958;23;20418;-84
2021/12/13 02:01:55;;;;;;;71.80;30.27;;;;;;;;;;6165969;23;20351;-85
2021/12/13 02:04:22;;;;;;;73.70;30.90;;;;;;;;;;6165403;23;20375;-84
2021/12/13 02:06:51;;;;;;;68.15;30.15;;;;;;;;;;6166143;23;20371;-84
2021/12/13 02:09:22;;;;;;;73.43;30.42;;;;;;;;;;6164354;23;20736;-85
2021/12/13 02:11:50;;;;;;;78.85;30.75;;;;;;;;;;6165000;23;20375;-85
2021/12/13 02:14:18;;;;;;;74.32;31.55;;;;;;;;;;6163957;23;20378;-85
2021/12/13 02:17:23;;;;;;;80.18;32.60;;;;;;;;;;6191095;23;20379;-86
2021/12/13 02:19:57;;;;;;;86.13;32.70;;;;;;;;;;6183898;23;20857;-86
2021/12/13 02:22:36;;;;;;;77.55;33.38;;;;;;;;;;6190358;23;20395;-85
2021/12/13 02:25:07;;;;;;;80.50;33.75;;;;;;;;;;6163280;23;20903;-76
2021/12/13 02:27:34;;;;;;;76.97;33.17;;;;;;;;;;6187015;23;20371;-76
2021/12/13 02:30:03;;;;;;;74.13;31.40;;;;;;;;;;6161883;23;20394;-76
2021/12/13 02:32:35;;;;;;;84.17;32.23;;;;;;;;;;6163640;23;20364;-76
2021/12/13 02:35:02;;;;;;;76.88;32.30;;;;;;;;;;6163711;23;20379;-76
2021/12/13 02:37:28;;;;;;;77.97;31.87;;;;;;;;;;6162620;23;20371;-76
2021/12/13 02:39:58;;;;;;;66.47;30.17;;;10.40;99.90;;;;;;6137429;23;20489;-76
2021/12/13 02:42:24;;;;;;;59.90;28.50;;;;;;;;;;6187227;23;20387;-73
2021/12/13 02:44:53;;;;;;;71.53;29.83;;;;;;;;;;6186771;23;20871;-76
2021/12/13 02:47:28;;;;;;;68.13;29.58;;;;;;;;;;6160937;23;20855;-75
2021/12/13 02:49:54;;;;;;;54.97;27.80;;;;;;;;;;6161953;23;20410;-76
2021/12/13 02:52:21;;;;;;;58.47;26.90;;;;;;;;;;6186017;23;20478;-76
2021/12/13 02:54:49;;;;;;;58.42;26.70;;;;;;;;;;6161590;23;20376;-76
2021/12/13 02:57:21;;;;;;;56.67;26.20;;;10.10;99.90;;;;;;6186832;23;20375;-76
2021/12/13 02:59:50;;;;;;;57.90;25.08;;;;;;;;;;6161289;23;20495;-75
2021/12/13 03:02:25;;;;;;;47.53;23.77;;;;;;;;;;6162019;23;20371;-76
2021/12/13 03:04:51;;;;;;;54.95;23.88;;;;;;;;;;6161349;23;20376;-76
2021/12/13 03:07:22;;;;;;;48.10;22.23;;;;;;;;;;6187046;23;20414;-75
2021/12/13 03:09:53;;;;;;;47.20;20.25;;;;;;;;;;6186232;23;20387;-75
2021/12/13 03:12:20;;;;;;;43.35;19.92;;;;;;;;;;6185086;23;20375;-75
2021/12/13 03:14:48;;;;;;;43.88;19.90;;;;;;;;;;6185483;23;20841;-75
2021/12/13 03:17:23;;;;;;;39.20;19.67;;;;;;;;;;6162536;23;20598;-76
2021/12/13 03:19:53;;;;;;;47.17;18.50;;;;;;;;;;6160818;23;20419;-75
2021/12/13 03:22:31;;;;;;;38.55;17.25;;;;;;;;;;6161841;23;20422;-75
2021/12/13 03:25:03;;;;;;;43.92;18.88;;;;;;;;;;6185986;23;20536;-75
2021/12/13 03:27:37;;;;;;;39.93;18.20;;;;;;;;;;6162346;23;20386;-76
2021/12/13 03:30:07;;;;;;;40.83;17.80;;;;;;;;;;6185382;23;20705;-75
2021/12/13 03:32:35;;;;;;;33.67;16.55;;;;;;;;;;6161425;23;20399;-75
2021/12/13 03:35:06;;;;;;;44.53;17.93;;;;;;;;;;6185931;23;20383;-75
2021/12/13 03:37:32;;;;;;;38.42;16.92;;;;;;;;;;6186536;23;20454;-75
2021/12/13 03:40:00;;;;;;;33.42;17.42;;;;;;;;;;6160877;23;20450;-75
2021/12/13 03:42:35;;;;;;;35.55;17.15;;;;;;;;;;6161413;23;20372;-89
2021/12/13 03:45:05;;;;;;;31.98;15.82;;;;;;;;;;6191121;23;20364;-89
2021/12/13 03:47:38;;;;;;;30.20;15.40;;;;;;;;;;6191752;23;20466;-89
2021/12/13 03:50:20;;;;;;;30.77;14.88;;;;;;;;;;6165726;23;20374;-88
2021/12/13 03:52:47;;;;;;;33.58;14.57;;;;;;;;;;6165590;23;20368;-89
2021/12/13 03:55:14;;;;;;;28.65;13.77;;;;;;;;;;6165652;23;20426;-89
2021/12/13 03:57:44;;;;;;;26.95;13.07;;;;;;;;;;6166510;23;20687;-88
2021/12/13 04:00:12;;;;;;;30.42;13.35;;;;;;;;;;6165292;23;20387;-89
2021/12/13 04:02:40;;;;;;;26.88;12.43;;;;;;;;;;6165307;23;20709;-89
2021/12/13 04:05:10;;;;;;;25.67;11.38;;;;;;;;;;6164493;23;20366;-88
2021/12/13 04:07:38;;;;;;;22.38;11.70;;;;;;;;;;6165252;23;20372;-89
2021/12/13 04:10:08;;;;;;;20.08;10.65;;;;;;;;;;6190343;23;20374;-89
2021/12/13 04:12:45;;;;;;;17.67;10.20;;;;;;;;;;6165230;23;20884;-89
2021/12/13 04:15:17;;;;;;;15.52;8.55;;;;;;;;;;6189669;23;20437;-89
2021/12/13 04:17:57;;;;;;;20.10;8.70;;;;;;;;;;6165807;23;20403;-89
2021/12/13 04:20:25;;;;;;;12.95;7.15;;;;;;;;;;6142513;23;20387;-88
2021/12/13 04:22:55;;;;;;;12.68;6.47;;;;;;;;;;6189820;23;20686;-90
2021/12/13 04:25:26;;;;;;;13.02;6.57;;;;;;;;;;6165511;23;20370;-88
2021/12/13 04:27:58;;;;;;;11.93;6.10;;;;;;;;;;6190024;23;20367;-89
2021/12/13 04:30:29;;;;;;;11.10;6.30;;;;;;;;;;6165095;23;20375;-89
2021/12/13 04:32:59;;;;;;;12.30;6.63;;;;;;;;;;6189208;23;20651;-89
2021/12/13 04:35:26;;;;;;;12.77;7.17;;;;;;;;;;6165056;23;20514;-89
2021/12/13 04:37:55;;;;;;;13.57;6.90;;;;;;;;;;6165466;23;20502;-89
2021/12/13 04:40:26;;;;;;;12.53;7.37;;;;;;;;;;6190693;23;20394;-89
2021/12/13 04:42:59;;;;;;;13.80;7.53;;;;;;;;;;6164883;23;20429;-88
2021/12/13 04:45:25;;;;;;;12.63;7.07;;;;;;;;;;6165343;23;20367;-89
2021/12/13 04:47:58;;;;;;;14.23;7.63;;;;;;;;;;6165618;23;20372;-86
2021/12/13 04:50:26;;;;;;;13.10;7.80;;;;;;;;;;6165639;23;20409;-89
2021/12/13 04:52:53;;;;;;;12.90;7.22;;;;;;;;;;6165362;23;20426;-90
2021/12/13 04:55:26;;;;;;;13.32;7.53;;;;;;;;;;6166030;23;20368;-90
2021/12/13 04:57:54;;;;;;;13.63;7.18;;;;;;;;;;6165809;23;20375;-87
2021/12/13 05:00:21;;;;;;;12.18;6.53;;;;;;;;;;6189781;23;20439;-90
2021/12/13 05:02:50;;;;;;;10.35;6.90;;;;;;;;;;6165752;23;20364;-89
2021/12/13 05:05:17;;;;;;;9.30;6.63;;;;;;;;;;6165580;23;21227;-89
2021/12/13 05:07:45;;;;;;;10.32;6.63;;;;;;;;;;6165537;23;20363;-89
2021/12/13 05:10:13;;;;;;;13.13;6.80;;;9.50;99.90;;;;;;6166566;23;20761;-89
2021/12/13 05:12:40;;;;;;;12.30;6.70;;;9.50;99.90;;;;;;6166498;23;20374;-89
2021/12/13 05:15:23;;;;;;;11.68;6.90;;;;;;;;;;6192447;23;20372;-89
2021/12/13 05:17:49;;;;;;;12.47;7.40;;;;;;;;;;6191619;23;20376;-89
2021/12/13 05:20:21;;;;;;;14.23;7.88;;;;;;;;;;6168139;23;20410;-89
2021/12/13 05:22:52;;;;;;;12.02;7.03;;;;;;;;;;6191998;23;20363;-89
2021/12/13 05:25:23;;;;;;;14.10;8.32;;;;;;;;;;6168055;23;20434;-89
2021/12/13 05:27:56;;;;;;;14.70;8.88;;;;;;;;;;6167612;23;20458;-89
2021/12/13 05:30:23;;;;;;;15.80;9.40;;;;;;;;;;6192378;23;20378;-89
2021/12/13 05:32:52;;;;;;;20.50;12.37;;;;;;;;;;6195387;23;20380;-89
2021/12/13 05:35:21;;;;;;;17.08;10.20;;;;;;;;;;6194568;23;20375;-89
2021/12/13 05:37:49;;;;;;;21.85;13.65;;;;;;;;;;6167595;23;20458;-89
2021/12/13 05:40:45;;;;;;;18.30;10.93;;;9.50;99.90;;;;;;6167754;23;20387;-89
2021/12/13 05:43:14;;;;;;;20.27;12.93;;;;;;;;;;6192467;23;20366;-89
2021/12/13 05:45:47;;;;;;;21.05;12.45;;;;;;;;;;6173657;23;20363;-87
2021/12/13 05:48:18;;;;;;;20.85;13.15;;;;;;;;;;6198824;23;20411;-89
2021/12/13 05:50:55;;;;;;;20.08;12.45;;;;;;;;;;6194806;23;20425;-89
2021/12/13 05:53:26;;;;;;;27.77;12.98;;;;;;;;;;6168413;23;20386;-88
2021/12/13 05:56:04;;;;;;;26.20;14.20;;;;;;;;;;6167301;23;20391;-89
2021/12/13 05:58:45;;;;;;;22.30;13.65;;;;;;;;;;6170909;23;20810;-90
2021/12/13 06:01:18;;;;;;;22.48;12.93;;;;;;;;;;6172697;23;20396;-89
2021/12/13 06:03:48;;;;;;;20.43;12.30;;;;;;;;;;6167654;23;20430;-89
2021/12/13 06:06:16;;;;;;;20.50;12.88;;;;;;;;;;6191827;23;20763;-89
2021/12/13 06:08:45;;;;;;;19.58;11.80;;;;;;;;;;6162720;23;20385;-89
2021/12/13 06:11:13;;;;;;;18.00;10.60;;;;;;;;;;6164948;23;20385;-89
2021/12/13 06:13:43;;;;;;;15.73;11.38;;;;;;;;;;6191620;23;20369;-84
2021/12/13 06:16:33;;;;;;;19.67;11.00;;;;;;;;;;6188391;23;20424;-85
2021/12/13 06:19:11;;;;;;;22.38;12.43;;;;;;;;;;6161638;23;20369;-87
2021/12/13 06:21:56;;;;;;;18.07;10.37;;;;;;;;;;6161279;23;20372;-90
2021/12/13 06:24:27;;;;;;;16.30;10.02;;;;;;;;;;6160173;23;20408;-88
2021/12/13 06:27:22;;;;;;;19.73;10.15;;;;;;;;;;6187448;23;20918;-90
2021/12/13 06:30:02;;;;;;;17.30;10.55;;;;;;;;;;6135639;23;20460;-88
2021/12/13 06:32:35;;;;;;;21.05;12.00;;;;;;;;;;6161769;23;20369;-88
2021/12/13 06:35:21;;;;;;;15.95;10.10;;;;;;;;;;6160803;23;20377;-89
2021/12/13 06:37:47;;;;;;;17.88;10.52;;;;;;;;;;6186042;23;20524;-90
2021/12/13 06:40:25;;;;;;;20.47;12.47;;;;;;;;;;6162324;23;20389;-90
2021/12/13 06:42:52;;;;;;;19.38;10.90;;;;;;;;;;6163321;23;20366;-90
2021/12/13 06:45:23;;;;;;;18.00;11.00;;;;;;;;;;6187886;23;20432;-88
2021/12/13 06:47:51;;;;;;;19.30;11.48;;;;;;;;;;6188528;23;20916;-88
2021/12/13 06:50:25;;;;;;;16.95;10.95;;;;;;;;;;6188293;23;20369;-89
2021/12/13 06:52:52;;;;;;;25.27;13.27;;;;;;;;;;6189142;23;20672;-88
2021/12/13 06:55:19;;;;;;;19.10;12.47;;;;;;;;;;6164051;23;20523;-90
2021/12/13 06:57:54;;;;;;;30.25;12.48;;;;;;;;;;6164562;23;20373;-86
2021/12/13 07:00:20;;;;;;;20.80;13.82;;;;;;;;;;6162687;23;20389;-87
2021/12/13 07:02:48;;;;;;;28.38;15.45;;;;;;;;;;6162357;23;20676;-89
2021/12/13 07:05:17;;;;;;;24.58;16.52;;;;;;;;;;6163376;23;20393;-90
2021/12/13 07:07:43;;;;;;;20.33;13.45;;;;;;;;;;6189334;23;20369;-90
2021/12/13 07:10:13;;;;;;;21.08;13.48;;;;;;;;;;6191723;23;20369;-90
2021/12/13 07:12:44;;;;;;;30.17;14.85;;;;;;;;;;6189337;23;20372;-90
2021/12/13 07:15:29;;;;;;;27.05;18.65;;;;;;;;;;6161607;23;20365;-90
2021/12/13 07:18:03;;;;;;;20.83;13.48;;;;;;;;;;6162289;23;20378;-90
2021/12/13 07:20:35;;;;;;;21.67;14.40;;;;;;;;;;6185104;23;21012;-88
2021/12/13 07:23:01;;;;;;;22.92;14.68;;;;;;;;;;6185088;23;20369;-88
2021/12/13 07:25:34;;;;;;;23.75;15.60;;;;;;;;;;6185335;23;20402;-86
2021/12/13 07:28:00;;;;;;;23.02;15.50;;;;;;;;;;6191680;23;20385;-89
2021/12/13 07:30:28;;;;;;;25.65;16.08;;;;;;;;;;6189597;23;20357;-88
2021/12/13 07:32:58;;;;;;;24.33;16.25;;;;;;;;;;6160730;23;20424;-89
2021/12/13 07:35:43;;;;;;;30.10;19.10;;;;;;;;;;6159795;23;20451;-88
2021/12/13 07:38:18;;;;;;;24.77;16.67;;;;;;;;;;6161458;23;20369;-89
2021/12/13 07:40:55;;;;;;;24.55;16.38;;;;;;;;;;6164477;23;20377;-83
2021/12/13 07:43:28;;;;;;;24.83;16.83;;;;;;;;;;6185214;23;20353;-89
2021/12/13 07:45:55;;;;;;;26.40;17.50;;;;;;;;;;6183670;23;20376;-87
2021/12/13 07:48:21;;;;;;;35.70;19.95;;;;;;;;;;6159490;23;20897;-87
2021/12/13 07:50:57;;;;;;;25.40;17.92;;;;;;;;;;6183389;23;20456;-89
2021/12/13 07:53:26;;;;;;;29.30;18.55;;;;;;;;;;6184121;23;20369;-87
2021/12/13 07:55:52;;;;;;;28.75;19.05;;;;;;;;;;6158024;23;20696;-88
2021/12/13 07:58:33;;;;;;;28.08;19.23;;;;;;;;;;6182865;23;20427;-86
2021/12/13 08:01:14;;;;;;;28.67;20.02;;;;;;;;;;6157391;23;20392;-86
2021/12/13 08:03:44;;;;;;;33.75;20.23;;;;;;;;;;6183085;23;20369;-87
2021/12/13 08:06:10;;;;;;;28.73;19.67;;;;;;;;;;6157311;23;20439;-87
2021/12/13 08:08:44;;;;;;;31.58;22.40;;;;;;;;;;6182984;23;20406;-87
2021/12/13 08:11:11;;;;;;;30.95;20.83;;;;;;;;;;6177465;23;20431;-87
2021/12/13 08:13:37;;;;;;;32.03;21.23;;;;;;;;;;6154419;23;20392;-88
2021/12/13 08:16:05;;;;;;;29.90;21.27;;;;;;;;;;6132288;23;20516;-88
2021/12/13 08:18:34;;;;;;;31.95;22.17;;;;;;;;;;6155475;23;20369;-87
2021/12/13 08:21:07;;;;;;;29.20;21.10;;;;;;;;;;6181610;23;20863;-85
2021/12/13 08:23:42;;;;;;;29.57;21.43;;;;;;;;;;6156254;23;20370;-86
2021/12/13 08:26:10;;;;;;;30.50;21.75;;;;;;;;;;6157193;23;20472;-87
2021/12/13 08:28:42;;;;;;;30.02;21.10;;;;;;;;;;6156790;23;20377;-86
2021/12/13 08:31:19;;;;;;;31.20;21.77;;;;;;;;;;6156960;23;20610;-85
2021/12/13 08:33:48;;;;;;;28.15;21.05;;;;;;;;;;6156179;23;20380;-86
2021/12/13 08:36:15;;;;;;;29.70;20.92;;;;;;;;;;6151635;23;20641;-85
2021/12/13 08:38:48;;;;;;;31.37;22.70;;;;;;;;;;6154335;23;20447;-85
2021/12/13 08:41:23;;;;;;;34.08;21.85;;;;;;;;;;6179796;23;20399;-85
2021/12/13 08:43:58;;;;;;;31.80;21.75;;;;;;;;;;6179396;23;20369;-85
2021/12/13 08:46:56;;;;;;;31.40;21.58;;;;;;;;;;6182637;23;20374;-86
2021/12/13 08:49:31;;;;;;;27.42;21.42;;;;;;;;;;6160774;23;20372;-86
2021/12/13 08:52:09;;;;;;;33.38;23.73;;;;;;;;;;6182310;23;20897;-85
2021/12/13 08:54:39;;;;;;;29.92;21.00;;;;;;;;;;6182019;23;20866;-85
2021/12/13 08:57:06;;;;;;;29.38;21.15;;;;;;;;;;6182654;23;20547;-86
2021/12/13 08:59:32;;;;;;;27.90;21.30;;;;;;;;;;6158029;23;20389;-85
2021/12/13 09:02:03;;;;;;;30.08;22.15;;;;;;;;;;6131693;23;21098;-85
2021/12/13 09:04:39;;;;;;;31.43;20.77;;;;;;;;;;6183077;23;20697;-84
2021/12/13 09:07:07;;;;;;;27.13;20.67;;;;;;;;;;6162622;23;20368;-85
2021/12/13 09:09:34;;;;;;;28.70;20.77;;;;;;;;;;6186494;23;20371;-85
2021/12/13 09:12:02;;;;;;;26.60;21.27;;;;;;;;;;6138297;23;20399;-83
2021/12/13 09:14:36;;;;;;;30.80;22.52;;;;;;;;;;6187389;23;20430;-86
2021/12/13 09:17:12;;;;;;;27.58;20.55;;;;;;;;;;6161768;23;20380;-84
2021/12/13 09:19:38;;;;;;;27.13;20.88;;;;;;;;;;6186896;23;20391;-84
2021/12/13 09:22:09;;;;;;;28.10;19.23;;;;;;;;;;6164005;23;20375;-84
2021/12/13 09:24:37;;;;;;;28.30;20.60;;;;;;;;;;6164038;23;20430;-85
2021/12/13 09:27:13;;;;;;;26.58;21.08;;;;;;;;;;6160613;23;20663;-85
2021/12/13 09:29:51;;;;;;;26.02;20.17;;;;;;;;;;6163092;23;20381;-85
2021/12/13 09:32:18;;;;;;;27.63;19.15;;;;;;;;;;6163084;23;20391;-85
2021/12/13 09:34:45;;;;;;;25.67;18.42;;;;;;;;;;6163471;23;20492;-85
2021/12/13 09:37:11;;;;;;;26.85;18.48;;;;;;;;;;6162448;23;20371;-85
2021/12/13 09:39:37;;;;;;;27.30;19.10;;;;;;;;;;6163753;23;20395;-84
2021/12/13 09:42:09;;;;;;;25.40;18.35;;;;;;;;;;6138667;23;20379;-84
2021/12/13 09:44:44;;;;;;;25.48;18.70;;;;;;;;;;6163030;23;20363;-84
2021/12/13 09:47:15;;;;;;;23.53;17.67;;;;;;;;;;6162784;23;20403;-84
2021/12/13 09:49:45;;;;;;;23.30;18.25;;;;;;;;;;6187707;23;20470;-83
2021/12/13 09:52:11;;;;;;;28.92;19.90;;;;;;;;;;6161886;23;20367;-84
2021/12/13 09:54:42;;;;;;;23.42;18.02;;;;;;;;;;6187599;23;20697;-84
2021/12/13 09:57:11;;;;;;;23.92;18.35;;;;;;;;;;6186981;23;20372;-85
2021/12/13 09:59:41;;;;;;;24.30;17.73;;;;;;;;;;6186632;23;20553;-83
2021/12/13 10:02:10;;;;;;;22.73;18.08;;;;;;;;;;6162488;23;20375;-84
2021/12/13 10:04:38;;;;;;;26.73;18.70;;;;;;;;;;6213262;23;20538;-83
2021/12/13 10:07:07;;;;;;;25.88;17.75;;;;;;;;;;6164918;23;20364;-84
2021/12/13 10:09:36;;;;;;;25.48;18.83;;;;;;;;;;6164012;23;20359;-84
2021/12/13 10:12:13;;;;;;;24.10;18.47;;;;;;;;;;6161154;23;20372;-85
2021/12/13 10:14:45;;;;;;;24.17;18.03;;;;;;;;;;6186235;23;20379;-85
2021/12/13 10:17:13;;;;;;;27.40;18.10;;;;;;;;;;6182734;23;20368;-84
2021/12/13 10:19:48;;;;;;;22.88;17.90;;;;;;;;;;6183797;23;20491;-86
2021/12/13 10:22:16;;;;;;;24.35;17.27;;;;;;;;;;6185822;23;20375;-85
2021/12/13 10:24:47;;;;;;;24.90;17.90;;;;;;;;;;6161237;23;20411;-84
2021/12/13 10:27:14;;;;;;;24.13;16.63;;;;;;;;;;6186138;23;20390;-85
2021/12/13 10:29:45;;;;;;;24.48;17.75;;;;;;;;;;6184724;23;20848;-85
2021/12/13 10:32:13;;;;;;;24.40;17.48;;;;;;;;;;6160688;23;20368;-84
2021/12/13 10:34:43;;;;;;;23.13;16.73;;;;;;;;;;6185189;23;20525;-85
2021/12/13 10:37:24;;;;;;;23.63;17.13;;;;;;;;;;6160801;23;20368;-85
2021/12/13 10:39:53;;;;;;;28.75;20.83;;;;;;;;;;6186230;23;20387;-85
2021/12/13 10:42:23;;;;;;;24.25;17.33;;;;;;;;;;6162235;23;20374;-86
2021/12/13 10:44:49;;;;;;;25.13;17.35;;;;;;;;;;6185776;23;20845;-86
2021/12/13 10:47:21;;;;;;;22.75;16.85;;;;;;;;;;6160894;23;20820;-87
2021/12/13 10:49:50;;;;;;;26.15;17.80;;;;;;;;;;6187542;23;20695;-87
2021/12/13 10:52:24;;;;;;;25.95;17.05;;;;;;;;;;6212288;23;20391;-86
2021/12/13 10:54:53;;;;;;;25.40;17.30;;;;;;;;;;6162978;23;20403;-86
2021/12/13 10:57:43;;;;;;;24.97;17.43;;;;;;;;;;6161758;23;20736;-87
2021/12/13 11:00:11;;;;;;;24.88;17.75;;;;;;;;;;6186423;23;20391;-87
2021/12/13 11:02:37;;;;;;;25.42;17.48;;;;;;;;;;6161558;23;20364;-88
2021/12/13 11:05:16;;;;;;;24.85;17.08;;;;;;;;;;6161284;23;20959;-87
2021/12/13 11:07:42;;;;;;;27.05;18.85;;;;;;;;;;6212503;23;20364;-86
2021/12/13 11:10:10;;;;;;;23.58;17.00;;;;;;;;;;6162176;23;20422;-85
2021/12/13 11:12:39;;;;;;;25.05;17.58;;;;;;;;;;6153636;23;20382;-87
2021/12/13 11:15:08;;;;;;;24.60;17.65;;;;;;;;;;6155530;23;20377;-75
2021/12/13 11:17:35;;;;;;;26.48;17.50;;;;;;;;;;6151692;23;20390;-75
2021/12/13 11:20:07;;;;;;;23.98;16.85;;;;;;;;;;6129767;23;20391;-76
2021/12/13 11:22:34;;;;;;;24.92;17.25;;;;;;;;;;6175903;23;20540;-76
2021/12/13 11:25:03;;;;;;;24.33;17.48;;;;;;;;;;6153382;23;20370;-75
2021/12/13 11:27:33;;;;;;;26.25;17.92;;;;;;;;;;6180517;23;20375;-76
2021/12/13 11:30:00;;;;;;;24.02;17.42;;;;;;;;;;6157443;23;20368;-76
2021/12/13 11:32:32;;;;;;;23.13;16.10;;;;;;;;;;6157685;23;20837;-76
2021/12/13 11:35:08;;;;;;;25.80;17.08;;;;;;;;;;6156830;23;20857;-76
2021/12/13 11:37:43;;;;;;;25.58;17.15;;;;;;;;;;6158469;23;20431;-75
2021/12/13 11:40:15;;;;;;;23.88;16.85;;;;;;;;;;6159775;23;20391;-76
2021/12/13 11:42:42;;;;;;;25.60;16.63;;;;;;;;;;6156867;23;20883;-77
2021/12/13 11:45:31;;;;;;;22.83;16.50;;;;;;;;;;6185738;23;20368;-85
2021/12/13 11:47:57;;;;;;;25.23;17.13;;;;;;;;;;6160160;23;20450;-85
2021/12/13 11:50:42;;;;;;;26.30;16.95;;;;;;;;;;6164275;23;20406;-85
2021/12/13 11:53:09;;;;;;;27.33;17.55;;;;;;;;;;6164719;23;20398;-84
2021/12/13 11:55:43;;;;;;;27.50;17.48;;;;;;;;;;6188884;23;20833;-86
2021/12/13 11:58:24;;;;;;;27.75;17.80;;;;;;;;;;6181747;23;21582;-77
2021/12/13 12:01:09;;;;;;;30.25;18.70;;;;;;;;;;6183266;23;20717;-75
2021/12/13 12:03:41;;;;;;;25.77;17.10;;;;;;;;;;6210839;23;20738;-87
2021/12/13 12:06:26;;;;;;;25.05;16.77;;;;;;;;;;6164783;23;20381;-86
2021/12/13 12:09:04;;;;;;;26.73;17.70;;;;;;;;;;6189465;23;20353;-86
2021/12/13 12:11:34;;;;;;;26.98;18.85;;;;;;;;;;6162916;23;20434;-86
2021/12/13 12:14:11;;;;;;;29.47;19.40;;;;;;;;;;6186938;23;20603;-88
2021/12/13 12:16:39;;;;;;;28.97;18.60;;;;;;;;;;6186463;23;20432;-87
2021/12/13 12:19:07;;;;;;;29.05;18.75;;;;;;;;;;6188377;23;20392;-86
2021/12/13 12:21:36;;;;;;;29.73;18.65;;;;;;;;;;6163881;23;20435;-86
2021/12/13 12:24:11;;;;;;;29.23;17.88;;;;;;;;;;6161954;23;20397;-86
2021/12/13 12:26:38;;;;;;;30.38;18.38;;;;;;;;;;6161247;23;20424;-88
2021/12/13 12:29:13;;;;;;;29.05;18.75;;;;;;;;;;6161786;23;20440;-86
2021/12/13 12:31:41;;;;;;;27.48;18.42;;;;;;;;;;6161639;23;20448;-88
2021/12/13 12:34:08;;;;;;;29.63;18.77;;;;;;;;;;6162920;23;20377;-88
2021/12/13 12:36:43;;;;;;;31.33;19.80;;;;;;;;;;6164914;23;20781;-87
2021/12/13 12:39:48;;;;;;;30.88;19.30;;;;;;;;;;6164136;23;20863;-88
2021/12/13 12:42:21;;;;;;;32.90;19.92;;;;;;;;;;6050935;23;20378;-86
2021/12/13 12:44:56;;;;;;;31.50;20.33;;;;;;;;;;6096560;23;20377;-88
2021/12/13 12:47:48;;;;;;;36.90;20.90;;;;;;;;;;6136607;23;20357;-87
2021/12/13 12:50:19;;;;;;;31.90;20.90;;;;;;;;;;6160720;23;20384;-88
2021/12/13 12:52:49;;;;;;;32.47;20.20;;;;;;;;;;6161703;23;20874;-87
2021/12/13 12:55:18;;;;;;;33.13;20.27;;;;;;;;;;6136000;23;20691;-88
2021/12/13 12:57:44;;;;;;;32.08;20.17;;;;;;;;;;6163312;23;20369;-86
2021/12/13 13:00:11;;;;;;;28.38;19.02;;;;;;;;;;6162502;23;20389;-87
2021/12/13 13:02:37;;;;;;;28.98;18.27;;;;;;;;;;6137864;23;20405;-87
2021/12/13 13:05:05;;;;;;;28.98;17.92;;;;;;;;;;6187570;23;20451;-87
2021/12/13 13:07:33;;;;;;;26.90;17.50;;;;;;;;;;6161446;23;20373;-87
2021/12/13 13:10:01;;;;;;;27.70;17.15;;;;;;;;;;6162877;23;20444;-86
2021/12/13 13:12:32;;;;;;;27.33;17.10;;;;;;;;;;6165425;23;20382;-85
2021/12/13 13:15:09;;;;;;;29.05;17.65;;;;;;;;;;6163301;23;20365;-86
2021/12/13 13:17:38;;;;;;;26.75;16.90;;;;;;;;;;6164221;23;20377;-86
2021/12/13 13:20:23;;;;;;;27.48;17.60;;;;;;;;;;6162769;23;20481;-86
2021/12/13 13:22:50;;;;;;;25.17;16.15;;;;;;;;;;6159207;23;20456;-88
2021/12/13 13:25:26;;;;;;;26.50;16.17;;;;;;;;;;6159799;23;20369;-86
2021/12/13 13:27:55;;;;;;;24.77;15.98;;;;;;;;;;6186137;23;20370;-87
2021/12/13 13:30:27;;;;;;;23.75;16.23;;;;;;;;;;6160726;23;20452;-87
2021/12/13 13:32:56;;;;;;;25.83;16.30;;;;;;;;;;6188833;23;20369;-87
2021/12/13 13:35:22;;;;;;;23.80;15.35;;;;;;;;;;6164619;23;20390;-86
2021/12/13 13:37:49;;;;;;;25.02;15.65;;;;;;;;;;6187408;23;20388;-87
2021/12/13 13:40:17;;;;;;;26.38;15.93;;;;;;;;;;6162593;23;20696;-87
2021/12/13 13:42:47;;;;;;;24.65;15.75;;;;;;;;;;6186924;23;20859;-87
2021/12/13 13:45:16;;;;;;;24.63;15.30;;;;;;;;;;6163014;23;20423;-86
2021/12/13 13:47:46;;;;;;;22.30;14.50;;;;;;;;;;6188880;23;20369;-87
2021/12/13 13:50:31;;;;;;;23.33;13.73;;;10.30;99.90;;;;;;6164218;23;20361;-84
2021/12/13 13:53:00;;;;;;;20.80;14.38;;;;;;;;;;6164894;23;20448;-88
2021/12/13 13:55:26;;;;;;;24.25;14.80;;;;;;;;;;6165678;23;20370;-87
2021/12/13 13:58:00;;;;;;;24.15;15.27;;;;;;;;;;6191161;23;20401;-86
2021/12/13 14:00:32;;;;;;;26.93;14.60;;;;;;;;;;6166029;23;20423;-86
2021/12/13 14:02:58;;;;;;;23.33;14.02;;;;;;;;;;6190521;23;20377;-87
2021/12/13 14:05:26;;;;;;;25.38;15.25;;;;;;;;;;6165050;23;20397;-87
2021/12/13 14:07:53;;;;;;;26.60;16.20;;;;;;;;;;6191315;23;20432;-88
2021/12/13 14:10:22;;;;;;;26.10;15.60;;;;;;;;;;6165228;23;20416;-86
2021/12/13 14:12:56;;;;;;;23.53;15.60;;;;;;;;;;6190148;23;20465;-87
2021/12/13 14:15:25;;;;;;;24.50;16.40;;;;;;;;;;6166431;23;20380;-86
2021/12/13 14:17:56;;;;;;;28.60;16.85;;;;;;;;;;6165684;23;20377;-86
2021/12/13 14:20:34;;;;;;;26.27;17.33;;;;;;;;;;6164652;23;20454;-87
2021/12/13 14:23:14;;;;;;;30.85;17.45;;;;;;;;;;6189522;23;20369;-87
2021/12/13 14:25:41;;;;;;;28.83;17.50;;;;;;;;;;6189833;23;20365;-87
2021/12/13 14:28:09;;;;;;;28.40;16.70;;;;;;;;;;6162903;23;20376;-87
2021/12/13 14:30:37;;;;;;;25.40;17.35;;;;;;;;;;6190811;23;20584;-87
2021/12/13 14:33:19;;;;;;;31.05;19.52;;;;;;;;;;6188422;23;20431;-88
2021/12/13 14:35:45;;;;;;;28.55;18.33;;;;;;;;;;6187244;23;20401;-87
2021/12/13 14:38:12;;;;;;;29.55;18.23;;;;;;;;;;6136878;23;20374;-87
2021/12/13 14:40:46;;;;;;;29.83;18.27;;;;;;;;;;6186655;23;20389;-84
2021/12/13 14:43:21;;;;;;;29.27;18.38;;;;;;;;;;6184607;23;20843;-86
2021/12/13 14:45:47;;;;;;;27.83;18.53;;;;;;;;;;6160234;23;20404;-85